Terminal Aerodrome Forecast
Issued by NWS

Home | Current Version | Previous Version | Graphics & Text | Print | Product List | Glossary On
Versions: 1 2 3 4 5 6 7 8 9 10 11 12 13 14 15 16 17 18 19 20
000
FTUS43 KBIS 241300 AAA
TAFDIK
TAF AMD
KDIK 241311Z 2413/2512 30010KT P6SM SCT004
      TEMPO 2413/2416 BKN004
     FM241600 32010KT P6SM SCT050 SCT070
     FM242100 30014KT P6SM BKN035 OVC060
     FM250200 29011KT P6SM BKN015 OVC025
     FM250800 27006KT P6SM SCT025=

USA.gov is the U.S. government's official web portal to all federal, state and local government web resources and services.